sensor_id;sensor_type;location;lat;lon;timestamp;P1;durP1;ratioP1;P2;durP2;ratioP2
54261;SDS011;40174;52.364;6.452;2023-06-04T00:00:44;3.85;;;1.30;;
54261;SDS011;40174;52.364;6.452;2023-06-04T00:03:10;4.50;;;1.60;;
54261;SDS011;40174;52.364;6.452;2023-06-04T00:05:37;3.58;;;0.90;;
54261;SDS011;40174;52.364;6.452;2023-06-04T00:08:03;5.43;;;1.35;;
54261;SDS011;40174;52.364;6.452;2023-06-04T00:10:31;3.70;;;1.33;;
54261;SDS011;40174;52.364;6.452;2023-06-04T00:12:59;2.88;;;1.20;;
54261;SDS011;40174;52.364;6.452;2023-06-04T00:15:25;3.97;;;1.45;;
54261;SDS011;40174;52.364;6.452;2023-06-04T00:17:52;5.90;;;1.20;;
54261;SDS011;40174;52.364;6.452;2023-06-04T00:20:19;3.97;;;1.30;;
54261;SDS011;40174;52.364;6.452;2023-06-04T00:22:46;3.40;;;1.10;;
54261;SDS011;40174;52.364;6.452;2023-06-04T00:25:12;5.03;;;1.27;;
54261;SDS011;40174;52.364;6.452;2023-06-04T00:27:40;1.98;;;0.93;;
54261;SDS011;40174;52.364;6.452;2023-06-04T00:30:07;3.63;;;1.17;;
54261;SDS011;40174;52.364;6.452;2023-06-04T00:32:34;2.63;;;1.13;;
54261;SDS011;40174;52.364;6.452;2023-06-04T00:35:02;2.55;;;1.05;;
54261;SDS011;40174;52.364;6.452;2023-06-04T00:37:29;4.15;;;1.08;;
54261;SDS011;40174;52.364;6.452;2023-06-04T00:39:56;4.38;;;1.17;;
54261;SDS011;40174;52.364;6.452;2023-06-04T00:42:23;4.15;;;1.08;;
54261;SDS011;40174;52.364;6.452;2023-06-04T00:44:51;3.40;;;1.02;;
54261;SDS011;40174;52.364;6.452;2023-06-04T00:47:18;1.73;;;0.80;;
54261;SDS011;40174;52.364;6.452;2023-06-04T00:49:46;2.17;;;1.10;;
54261;SDS011;40174;52.364;6.452;2023-06-04T00:52:13;3.08;;;1.05;;
54261;SDS011;40174;52.364;6.452;2023-06-04T00:54:41;3.67;;;1.02;;
54261;SDS011;40174;52.364;6.452;2023-06-04T00:57:08;1.88;;;1.00;;
54261;SDS011;40174;52.364;6.452;2023-06-04T00:59:35;5.38;;;1.30;;
54261;SDS011;40174;52.364;6.452;2023-06-04T01:02:09;2.80;;;1.35;;
54261;SDS011;40174;52.364;6.452;2023-06-04T01:04:41;1.50;;;0.90;;
54261;SDS011;40174;52.364;6.452;2023-06-04T01:07:12;2.33;;;0.88;;
54261;SDS011;40174;52.364;6.452;2023-06-04T01:09:40;3.13;;;1.38;;
54261;SDS011;40174;52.364;6.452;2023-06-04T01:12:07;2.88;;;1.30;;
54261;SDS011;40174;52.364;6.452;2023-06-04T01:14:35;3.33;;;1.20;;
54261;SDS011;40174;52.364;6.452;2023-06-04T01:17:03;3.15;;;1.42;;
54261;SDS011;40174;52.364;6.452;2023-06-04T01:19:59;3.47;;;1.20;;
54261;SDS011;40174;52.364;6.452;2023-06-04T01:22:36;3.75;;;1.15;;
54261;SDS011;40174;52.364;6.452;2023-06-04T01:25:15;3.13;;;1.10;;
54261;SDS011;40174;52.364;6.452;2023-06-04T01:27:49;3.60;;;1.00;;
54261;SDS011;40174;52.364;6.452;2023-06-04T01:30:18;2.80;;;1.15;;
54261;SDS011;40174;52.364;6.452;2023-06-04T01:32:47;2.90;;;1.23;;
54261;SDS011;40174;52.364;6.452;2023-06-04T01:42:49;5.50;;;1.38;;
54261;SDS011;40174;52.364;6.452;2023-06-04T01:45:16;2.42;;;1.00;;
54261;SDS011;40174;52.364;6.452;2023-06-04T01:47:43;3.58;;;1.30;;
54261;SDS011;40174;52.364;6.452;2023-06-04T01:50:11;2.30;;;0.93;;
54261;SDS011;40174;52.364;6.452;2023-06-04T01:52:38;4.55;;;1.48;;
54261;SDS011;40174;52.364;6.452;2023-06-04T01:55:06;3.58;;;1.50;;
54261;SDS011;40174;52.364;6.452;2023-06-04T01:57:34;4.60;;;1.35;;
54261;SDS011;40174;52.364;6.452;2023-06-04T02:00:01;5.03;;;1.38;;
54261;SDS011;40174;52.364;6.452;2023-06-04T02:02:38;3.20;;;1.40;;
54261;SDS011;40174;52.364;6.452;2023-06-04T02:05:07;5.43;;;1.25;;
54261;SDS011;40174;52.364;6.452;2023-06-04T02:07:35;1.90;;;1.10;;
54261;SDS011;40174;52.364;6.452;2023-06-04T02:10:04;5.30;;;1.67;;
54261;SDS011;40174;52.364;6.452;2023-06-04T02:12:31;3.55;;;1.45;;
54261;SDS011;40174;52.364;6.452;2023-06-04T02:14:58;3.63;;;1.42;;
54261;SDS011;40174;52.364;6.452;2023-06-04T02:17:24;5.45;;;1.40;;
54261;SDS011;40174;52.364;6.452;2023-06-04T02:19:51;2.92;;;1.17;;
54261;SDS011;40174;52.364;6.452;2023-06-04T02:22:18;3.15;;;1.17;;
54261;SDS011;40174;52.364;6.452;2023-06-04T02:24:46;6.22;;;1.40;;
54261;SDS011;40174;52.364;6.452;2023-06-04T02:27:13;3.72;;;1.50;;
54261;SDS011;40174;52.364;6.452;2023-06-04T02:29:40;4.63;;;1.45;;
54261;SDS011;40174;52.364;6.452;2023-06-04T02:32:08;3.47;;;1.60;;
54261;SDS011;40174;52.364;6.452;2023-06-04T02:34:35;3.42;;;1.70;;
54261;SDS011;40174;52.364;6.452;2023-06-04T02:37:02;4.63;;;1.35;;
54261;SDS011;40174;52.364;6.452;2023-06-04T02:39:29;3.47;;;1.52;;
54261;SDS011;40174;52.364;6.452;2023-06-04T02:41:57;2.55;;;1.52;;
54261;SDS011;40174;52.364;6.452;2023-06-04T02:44:24;5.63;;;1.40;;
54261;SDS011;40174;52.364;6.452;2023-06-04T02:46:51;4.53;;;1.40;;
54261;SDS011;40174;52.364;6.452;2023-06-04T02:49:18;4.25;;;1.40;;
54261;SDS011;40174;52.364;6.452;2023-06-04T02:51:45;2.90;;;1.50;;
54261;SDS011;40174;52.364;6.452;2023-06-04T02:54:12;3.40;;;1.42;;
54261;SDS011;40174;52.364;6.452;2023-06-04T02:56:39;4.43;;;1.20;;
54261;SDS011;40174;52.364;6.452;2023-06-04T02:59:07;4.38;;;1.40;;
54261;SDS011;40174;52.364;6.452;2023-06-04T03:01:34;4.00;;;1.30;;
54261;SDS011;40174;52.364;6.452;2023-06-04T03:04:01;3.15;;;1.30;;
54261;SDS011;40174;52.364;6.452;2023-06-04T03:06:30;2.88;;;1.30;;
54261;SDS011;40174;52.364;6.452;2023-06-04T03:08:58;3.42;;;1.30;;
54261;SDS011;40174;52.364;6.452;2023-06-04T03:11:26;2.88;;;1.42;;
54261;SDS011;40174;52.364;6.452;2023-06-04T03:13:53;4.85;;;1.40;;
54261;SDS011;40174;52.364;6.452;2023-06-04T03:16:21;3.22;;;1.45;;
54261;SDS011;40174;52.364;6.452;2023-06-04T03:18:49;3.47;;;1.50;;
54261;SDS011;40174;52.364;6.452;2023-06-04T03:21:16;4.93;;;1.65;;
54261;SDS011;40174;52.364;6.452;2023-06-04T03:23:42;5.10;;;1.83;;
54261;SDS011;40174;52.364;6.452;2023-06-04T03:26:10;3.42;;;1.58;;
54261;SDS011;40174;52.364;6.452;2023-06-04T03:28:38;4.70;;;1.55;;
54261;SDS011;40174;52.364;6.452;2023-06-04T03:31:07;5.13;;;1.50;;
54261;SDS011;40174;52.364;6.452;2023-06-04T03:33:35;4.05;;;1.58;;
54261;SDS011;40174;52.364;6.452;2023-06-04T03:36:01;4.65;;;1.80;;
54261;SDS011;40174;52.364;6.452;2023-06-04T03:38:28;4.13;;;1.52;;
54261;SDS011;40174;52.364;6.452;2023-06-04T03:40:54;3.33;;;1.52;;
54261;SDS011;40174;52.364;6.452;2023-06-04T03:43:22;6.00;;;2.20;;
54261;SDS011;40174;52.364;6.452;2023-06-04T03:45:52;8.30;;;2.42;;
54261;SDS011;40174;52.364;6.452;2023-06-04T03:48:19;6.88;;;1.60;;
54261;SDS011;40174;52.364;6.452;2023-06-04T03:50:48;6.18;;;1.80;;
54261;SDS011;40174;52.364;6.452;2023-06-04T03:53:16;3.97;;;1.67;;
54261;SDS011;40174;52.364;6.452;2023-06-04T03:55:42;5.38;;;1.60;;
54261;SDS011;40174;52.364;6.452;2023-06-04T03:58:09;4.88;;;2.13;;
54261;SDS011;40174;52.364;6.452;2023-06-04T04:00:39;6.97;;;1.90;;
54261;SDS011;40174;52.364;6.452;2023-06-04T04:03:06;5.60;;;1.90;;
54261;SDS011;40174;52.364;6.452;2023-06-04T04:05:35;7.72;;;2.17;;
54261;SDS011;40174;52.364;6.452;2023-06-04T04:08:03;6.57;;;2.00;;
54261;SDS011;40174;52.364;6.452;2023-06-04T04:10:33;6.32;;;2.20;;
54261;SDS011;40174;52.364;6.452;2023-06-04T04:13:01;6.13;;;2.22;;
54261;SDS011;40174;52.364;6.452;2023-06-04T04:15:31;6.55;;;2.28;;
54261;SDS011;40174;52.364;6.452;2023-06-04T04:18:00;8.52;;;2.38;;
54261;SDS011;40174;52.364;6.452;2023-06-04T04:20:27;5.95;;;1.80;;
54261;SDS011;40174;52.364;6.452;2023-06-04T04:23:00;6.20;;;2.05;;
54261;SDS011;40174;52.364;6.452;2023-06-04T04:25:30;8.32;;;2.40;;
54261;SDS011;40174;52.364;6.452;2023-06-04T04:27:59;7.30;;;2.20;;
54261;SDS011;40174;52.364;6.452;2023-06-04T04:30:28;5.60;;;2.00;;
54261;SDS011;40174;52.364;6.452;2023-06-04T04:32:54;7.35;;;2.80;;
54261;SDS011;40174;52.364;6.452;2023-06-04T04:35:27;6.32;;;2.25;;
54261;SDS011;40174;52.364;6.452;2023-06-04T04:37:57;8.63;;;2.45;;
54261;SDS011;40174;52.364;6.452;2023-06-04T04:40:25;5.88;;;2.10;;
54261;SDS011;40174;52.364;6.452;2023-06-04T04:42:55;9.82;;;2.88;;
54261;SDS011;40174;52.364;6.452;2023-06-04T04:45:22;6.22;;;2.50;;
54261;SDS011;40174;52.364;6.452;2023-06-04T04:47:51;6.80;;;2.30;;
54261;SDS011;40174;52.364;6.452;2023-06-04T04:50:17;7.60;;;2.33;;
54261;SDS011;40174;52.364;6.452;2023-06-04T04:52:44;8.43;;;2.38;;
54261;SDS011;40174;52.364;6.452;2023-06-04T04:55:11;6.65;;;2.65;;
54261;SDS011;40174;52.364;6.452;2023-06-04T04:57:38;9.48;;;2.42;;
54261;SDS011;40174;52.364;6.452;2023-06-04T05:00:07;11.98;;;2.55;;
54261;SDS011;40174;52.364;6.452;2023-06-04T05:02:38;7.50;;;2.53;;
54261;SDS011;40174;52.364;6.452;2023-06-04T05:05:06;5.60;;;2.53;;
54261;SDS011;40174;52.364;6.452;2023-06-04T05:07:33;5.93;;;2.50;;
54261;SDS011;40174;52.364;6.452;2023-06-04T05:10:00;6.80;;;2.55;;
54261;SDS011;40174;52.364;6.452;2023-06-04T05:12:29;8.00;;;2.72;;
54261;SDS011;40174;52.364;6.452;2023-06-04T05:14:57;10.70;;;2.83;;
54261;SDS011;40174;52.364;6.452;2023-06-04T05:17:25;6.05;;;2.60;;
54261;SDS011;40174;52.364;6.452;2023-06-04T05:19:56;4.32;;;2.15;;
54261;SDS011;40174;52.364;6.452;2023-06-04T05:22:37;6.70;;;2.47;;
54261;SDS011;40174;52.364;6.452;2023-06-04T05:25:05;4.72;;;1.88;;
54261;SDS011;40174;52.364;6.452;2023-06-04T05:27:33;7.80;;;2.63;;
54261;SDS011;40174;52.364;6.452;2023-06-04T05:30:01;9.70;;;2.78;;
54261;SDS011;40174;52.364;6.452;2023-06-04T05:32:29;9.77;;;2.65;;
54261;SDS011;40174;52.364;6.452;2023-06-04T05:34:58;8.40;;;2.20;;
54261;SDS011;40174;52.364;6.452;2023-06-04T05:37:30;10.98;;;2.60;;
54261;SDS011;40174;52.364;6.452;2023-06-04T05:39:59;7.47;;;2.30;;
54261;SDS011;40174;52.364;6.452;2023-06-04T05:42:30;6.18;;;1.90;;
54261;SDS011;40174;52.364;6.452;2023-06-04T05:44:57;9.15;;;2.30;;
54261;SDS011;40174;52.364;6.452;2023-06-04T05:47:24;6.05;;;2.35;;
54261;SDS011;40174;52.364;6.452;2023-06-04T05:49:52;6.55;;;2.20;;
54261;SDS011;40174;52.364;6.452;2023-06-04T05:52:19;8.05;;;2.38;;
54261;SDS011;40174;52.364;6.452;2023-06-04T05:54:46;8.57;;;2.90;;
54261;SDS011;40174;52.364;6.452;2023-06-04T05:57:14;6.03;;;2.03;;
54261;SDS011;40174;52.364;6.452;2023-06-04T05:59:40;7.03;;;2.22;;
54261;SDS011;40174;52.364;6.452;2023-06-04T06:02:11;7.97;;;2.55;;
54261;SDS011;40174;52.364;6.452;2023-06-04T06:04:39;8.65;;;2.35;;
54261;SDS011;40174;52.364;6.452;2023-06-04T06:07:07;4.97;;;1.88;;
54261;SDS011;40174;52.364;6.452;2023-06-04T06:09:34;12.45;;;2.83;;
54261;SDS011;40174;52.364;6.452;2023-06-04T06:12:01;4.70;;;2.00;;
54261;SDS011;40174;52.364;6.452;2023-06-04T06:14:29;5.70;;;2.22;;
54261;SDS011;40174;52.364;6.452;2023-06-04T06:16:56;7.18;;;2.45;;
54261;SDS011;40174;52.364;6.452;2023-06-04T06:19:23;5.57;;;2.42;;
54261;SDS011;40174;52.364;6.452;2023-06-04T06:21:50;7.28;;;2.50;;
54261;SDS011;40174;52.364;6.452;2023-06-04T06:24:18;9.07;;;2.33;;
54261;SDS011;40174;52.364;6.452;2023-06-04T06:26:45;8.73;;;2.30;;
54261;SDS011;40174;52.364;6.452;2023-06-04T06:29:13;11.50;;;2.35;;
54261;SDS011;40174;52.364;6.452;2023-06-04T06:31:42;7.80;;;2.28;;
54261;SDS011;40174;52.364;6.452;2023-06-04T06:34:08;7.57;;;2.17;;
54261;SDS011;40174;52.364;6.452;2023-06-04T06:36:35;7.55;;;2.30;;
54261;SDS011;40174;52.364;6.452;2023-06-04T06:39:02;8.73;;;2.15;;
54261;SDS011;40174;52.364;6.452;2023-06-04T06:41:30;7.07;;;2.00;;
54261;SDS011;40174;52.364;6.452;2023-06-04T06:43:56;6.88;;;2.17;;
54261;SDS011;40174;52.364;6.452;2023-06-04T06:46:23;6.60;;;1.90;;
54261;SDS011;40174;52.364;6.452;2023-06-04T06:48:50;9.40;;;2.03;;
54261;SDS011;40174;52.364;6.452;2023-06-04T06:51:16;7.68;;;1.98;;
54261;SDS011;40174;52.364;6.452;2023-06-04T06:53:43;6.90;;;2.17;;
54261;SDS011;40174;52.364;6.452;2023-06-04T06:56:10;6.40;;;2.13;;
54261;SDS011;40174;52.364;6.452;2023-06-04T06:58:37;6.80;;;2.28;;
54261;SDS011;40174;52.364;6.452;2023-06-04T07:01:04;6.30;;;1.60;;
54261;SDS011;40174;52.364;6.452;2023-06-04T07:03:31;6.40;;;1.70;;
54261;SDS011;40174;52.364;6.452;2023-06-04T07:05:58;7.38;;;1.38;;
54261;SDS011;40174;52.364;6.452;2023-06-04T07:08:24;3.80;;;1.58;;
54261;SDS011;40174;52.364;6.452;2023-06-04T07:10:51;4.43;;;1.30;;
54261;SDS011;40174;52.364;6.452;2023-06-04T07:13:17;7.78;;;1.90;;
54261;SDS011;40174;52.364;6.452;2023-06-04T07:15:46;6.10;;;1.67;;
54261;SDS011;40174;52.364;6.452;2023-06-04T07:18:13;3.88;;;1.42;;
54261;SDS011;40174;52.364;6.452;2023-06-04T07:20:39;2.97;;;1.30;;
54261;SDS011;40174;52.364;6.452;2023-06-04T07:23:06;4.80;;;1.60;;
54261;SDS011;40174;52.364;6.452;2023-06-04T07:25:33;3.78;;;1.33;;
54261;SDS011;40174;52.364;6.452;2023-06-04T07:27:59;2.92;;;1.00;;
54261;SDS011;40174;52.364;6.452;2023-06-04T07:30:29;5.32;;;1.42;;
54261;SDS011;40174;52.364;6.452;2023-06-04T07:32:57;2.80;;;1.20;;
54261;SDS011;40174;52.364;6.452;2023-06-04T07:35:24;4.97;;;1.25;;
54261;SDS011;40174;52.364;6.452;2023-06-04T07:37:50;2.50;;;1.17;;
54261;SDS011;40174;52.364;6.452;2023-06-04T07:40:17;3.22;;;1.10;;
54261;SDS011;40174;52.364;6.452;2023-06-04T07:42:45;4.55;;;1.23;;
54261;SDS011;40174;52.364;6.452;2023-06-04T07:45:12;3.20;;;1.25;;
54261;SDS011;40174;52.364;6.452;2023-06-04T07:47:39;5.28;;;1.10;;
54261;SDS011;40174;52.364;6.452;2023-06-04T07:50:07;2.78;;;1.00;;
54261;SDS011;40174;52.364;6.452;2023-06-04T07:52:34;3.08;;;1.20;;
54261;SDS011;40174;52.364;6.452;2023-06-04T07:55:01;4.22;;;1.10;;
54261;SDS011;40174;52.364;6.452;2023-06-04T07:57:28;4.20;;;1.00;;
54261;SDS011;40174;52.364;6.452;2023-06-04T07:59:55;4.10;;;1.10;;
54261;SDS011;40174;52.364;6.452;2023-06-04T08:02:22;4.55;;;1.25;;
54261;SDS011;40174;52.364;6.452;2023-06-04T08:04:49;5.25;;;1.20;;
54261;SDS011;40174;52.364;6.452;2023-06-04T08:07:17;3.10;;;1.15;;
54261;SDS011;40174;52.364;6.452;2023-06-04T08:09:43;4.45;;;1.17;;
54261;SDS011;40174;52.364;6.452;2023-06-04T08:12:10;3.58;;;0.82;;
54261;SDS011;40174;52.364;6.452;2023-06-04T08:14:37;5.43;;;1.10;;
54261;SDS011;40174;52.364;6.452;2023-06-04T08:17:03;2.47;;;0.85;;
54261;SDS011;40174;52.364;6.452;2023-06-04T08:19:30;2.65;;;0.98;;
54261;SDS011;40174;52.364;6.452;2023-06-04T08:21:57;1.35;;;0.75;;
54261;SDS011;40174;52.364;6.452;2023-06-04T08:24:25;4.32;;;0.90;;
54261;SDS011;40174;52.364;6.452;2023-06-04T08:26:51;2.88;;;0.90;;
54261;SDS011;40174;52.364;6.452;2023-06-04T08:29:18;3.08;;;1.20;;
54261;SDS011;40174;52.364;6.452;2023-06-04T08:31:45;3.08;;;1.08;;
54261;SDS011;40174;52.364;6.452;2023-06-04T08:34:11;2.53;;;0.80;;
54261;SDS011;40174;52.364;6.452;2023-06-04T08:36:38;3.30;;;1.20;;
54261;SDS011;40174;52.364;6.452;2023-06-04T08:39:04;1.80;;;0.77;;
54261;SDS011;40174;52.364;6.452;2023-06-04T08:41:34;2.10;;;0.70;;
54261;SDS011;40174;52.364;6.452;2023-06-04T08:44:04;6.10;;;1.10;;
54261;SDS011;40174;52.364;6.452;2023-06-04T08:46:32;5.97;;;1.38;;
54261;SDS011;40174;52.364;6.452;2023-06-04T08:48:59;4.50;;;1.17;;
54261;SDS011;40174;52.364;6.452;2023-06-04T08:51:27;3.05;;;1.20;;
54261;SDS011;40174;52.364;6.452;2023-06-04T08:53:54;3.05;;;1.10;;
54261;SDS011;40174;52.364;6.452;2023-06-04T08:56:22;2.47;;;1.05;;
54261;SDS011;40174;52.364;6.452;2023-06-04T08:58:50;4.07;;;0.85;;
54261;SDS011;40174;52.364;6.452;2023-06-04T09:01:17;1.77;;;0.90;;
54261;SDS011;40174;52.364;6.452;2023-06-04T09:03:44;4.05;;;1.10;;
54261;SDS011;40174;52.364;6.452;2023-06-04T09:06:11;4.63;;;0.98;;
54261;SDS011;40174;52.364;6.452;2023-06-04T09:08:38;3.92;;;1.23;;
54261;SDS011;40174;52.364;6.452;2023-06-04T09:11:10;3.97;;;1.17;;
54261;SDS011;40174;52.364;6.452;2023-06-04T09:13:39;3.50;;;1.27;;
54261;SDS011;40174;52.364;6.452;2023-06-04T09:16:08;4.53;;;0.98;;
54261;SDS011;40174;52.364;6.452;2023-06-04T09:18:35;1.98;;;0.60;;
54261;SDS011;40174;52.364;6.452;2023-06-04T09:21:02;6.28;;;1.15;;
54261;SDS011;40174;52.364;6.452;2023-06-04T09:23:30;3.58;;;0.93;;
54261;SDS011;40174;52.364;6.452;2023-06-04T09:26:05;5.75;;;1.33;;
54261;SDS011;40174;52.364;6.452;2023-06-04T09:28:33;5.22;;;0.90;;
54261;SDS011;40174;52.364;6.452;2023-06-04T09:31:00;2.08;;;0.80;;
54261;SDS011;40174;52.364;6.452;2023-06-04T09:33:28;2.80;;;1.00;;
54261;SDS011;40174;52.364;6.452;2023-06-04T09:35:55;3.03;;;0.90;;
54261;SDS011;40174;52.364;6.452;2023-06-04T09:38:22;3.28;;;0.93;;
54261;SDS011;40174;52.364;6.452;2023-06-04T09:40:49;4.38;;;0.93;;
54261;SDS011;40174;52.364;6.452;2023-06-04T09:43:21;1.55;;;0.60;;
54261;SDS011;40174;52.364;6.452;2023-06-04T09:45:48;2.65;;;0.50;;
54261;SDS011;40174;52.364;6.452;2023-06-04T09:48:19;2.45;;;0.98;;
54261;SDS011;40174;52.364;6.452;2023-06-04T09:50:48;1.58;;;0.52;;
54261;SDS011;40174;52.364;6.452;2023-06-04T09:53:14;2.40;;;0.77;;
54261;SDS011;40174;52.364;6.452;2023-06-04T09:55:42;1.40;;;0.60;;
54261;SDS011;40174;52.364;6.452;2023-06-04T09:58:09;3.25;;;1.05;;
54261;SDS011;40174;52.364;6.452;2023-06-04T10:00:37;1.83;;;1.02;;
54261;SDS011;40174;52.364;6.452;2023-06-04T10:03:04;4.55;;;0.80;;
54261;SDS011;40174;52.364;6.452;2023-06-04T10:05:32;1.63;;;0.88;;
54261;SDS011;40174;52.364;6.452;2023-06-04T10:08:01;1.75;;;0.63;;
54261;SDS011;40174;52.364;6.452;2023-06-04T10:10:30;3.38;;;0.55;;
54261;SDS011;40174;52.364;6.452;2023-06-04T10:13:01;2.55;;;0.50;;
54261;SDS011;40174;52.364;6.452;2023-06-04T10:15:31;2.40;;;0.60;;
54261;SDS011;40174;52.364;6.452;2023-06-04T10:17:59;1.60;;;0.50;;
54261;SDS011;40174;52.364;6.452;2023-06-04T10:20:28;1.77;;;0.65;;
54261;SDS011;40174;52.364;6.452;2023-06-04T10:22:55;1.13;;;0.45;;
54261;SDS011;40174;52.364;6.452;2023-06-04T10:25:24;1.30;;;0.70;;
54261;SDS011;40174;52.364;6.452;2023-06-04T10:27:52;2.90;;;1.20;;
54261;SDS011;40174;52.364;6.452;2023-06-04T10:30:19;2.42;;;0.90;;
54261;SDS011;40174;52.364;6.452;2023-06-04T10:32:45;2.85;;;0.80;;
54261;SDS011;40174;52.364;6.452;2023-06-04T10:35:12;4.57;;;0.88;;
54261;SDS011;40174;52.364;6.452;2023-06-04T10:37:40;2.00;;;0.65;;
54261;SDS011;40174;52.364;6.452;2023-06-04T10:40:07;2.17;;;0.55;;
54261;SDS011;40174;52.364;6.452;2023-06-04T10:42:41;2.42;;;0.90;;
54261;SDS011;40174;52.364;6.452;2023-06-04T10:45:09;1.77;;;0.75;;
54261;SDS011;40174;52.364;6.452;2023-06-04T10:47:37;3.83;;;0.70;;
54261;SDS011;40174;52.364;6.452;2023-06-04T10:50:09;0.70;;;0.47;;
54261;SDS011;40174;52.364;6.452;2023-06-04T10:52:36;2.95;;;0.98;;
54261;SDS011;40174;52.364;6.452;2023-06-04T10:55:05;2.47;;;0.80;;
54261;SDS011;40174;52.364;6.452;2023-06-04T10:57:33;1.58;;;0.60;;
54261;SDS011;40174;52.364;6.452;2023-06-04T11:00:01;2.78;;;0.73;;
54261;SDS011;40174;52.364;6.452;2023-06-04T11:02:31;2.10;;;0.57;;
54261;SDS011;40174;52.364;6.452;2023-06-04T11:04:58;2.55;;;0.73;;
54261;SDS011;40174;52.364;6.452;2023-06-04T11:07:26;3.65;;;0.60;;
54261;SDS011;40174;52.364;6.452;2023-06-04T11:09:53;1.30;;;0.73;;
54261;SDS011;40174;52.364;6.452;2023-06-04T11:12:21;1.02;;;0.60;;
54261;SDS011;40174;52.364;6.452;2023-06-04T11:14:54;1.42;;;0.70;;
54261;SDS011;40174;52.364;6.452;2023-06-04T11:17:22;3.60;;;0.77;;
54261;SDS011;40174;52.364;6.452;2023-06-04T11:19:49;1.35;;;0.60;;
54261;SDS011;40174;52.364;6.452;2023-06-04T11:22:20;4.75;;;0.75;;
54261;SDS011;40174;52.364;6.452;2023-06-04T11:24:47;3.78;;;0.93;;
54261;SDS011;40174;52.364;6.452;2023-06-04T11:27:13;1.35;;;0.73;;
54261;SDS011;40174;52.364;6.452;2023-06-04T11:29:40;1.92;;;0.70;;
54261;SDS011;40174;52.364;6.452;2023-06-04T11:32:09;3.00;;;0.73;;
54261;SDS011;40174;52.364;6.452;2023-06-04T11:34:48;3.10;;;0.77;;
54261;SDS011;40174;52.364;6.452;2023-06-04T11:37:15;1.23;;;0.68;;
54261;SDS011;40174;52.364;6.452;2023-06-04T11:39:41;2.22;;;0.70;;
54261;SDS011;40174;52.364;6.452;2023-06-04T11:42:09;2.35;;;0.88;;
54261;SDS011;40174;52.364;6.452;2023-06-04T11:44:36;1.38;;;0.60;;
54261;SDS011;40174;52.364;6.452;2023-06-04T11:47:10;3.13;;;0.82;;
54261;SDS011;40174;52.364;6.452;2023-06-04T11:49:37;3.42;;;0.90;;
54261;SDS011;40174;52.364;6.452;2023-06-04T11:52:05;2.88;;;0.90;;
54261;SDS011;40174;52.364;6.452;2023-06-04T11:54:33;2.20;;;0.73;;
54261;SDS011;40174;52.364;6.452;2023-06-04T11:57:03;1.05;;;0.70;;
54261;SDS011;40174;52.364;6.452;2023-06-04T11:59:31;3.55;;;0.90;;
54261;SDS011;40174;52.364;6.452;2023-06-04T12:01:58;2.30;;;0.88;;
54261;SDS011;40174;52.364;6.452;2023-06-04T12:04:29;1.83;;;0.70;;
54261;SDS011;40174;52.364;6.452;2023-06-04T12:06:56;2.10;;;0.80;;
54261;SDS011;40174;52.364;6.452;2023-06-04T12:09:27;2.83;;;0.90;;
54261;SDS011;40174;52.364;6.452;2023-06-04T12:11:59;1.52;;;0.77;;
54261;SDS011;40174;52.364;6.452;2023-06-04T12:14:26;1.52;;;0.70;;
54261;SDS011;40174;52.364;6.452;2023-06-04T12:16:54;2.67;;;0.90;;
54261;SDS011;40174;52.364;6.452;2023-06-04T12:19:21;3.33;;;0.88;;
54261;SDS011;40174;52.364;6.452;2023-06-04T12:21:58;2.78;;;0.80;;
54261;SDS011;40174;52.364;6.452;2023-06-04T12:24:28;4.97;;;0.75;;
54261;SDS011;40174;52.364;6.452;2023-06-04T12:27:01;2.08;;;1.13;;
54261;SDS011;40174;52.364;6.452;2023-06-04T12:29:29;2.67;;;0.75;;
54261;SDS011;40174;52.364;6.452;2023-06-04T12:32:01;1.55;;;0.70;;
54261;SDS011;40174;52.364;6.452;2023-06-04T12:34:29;1.80;;;0.80;;
54261;SDS011;40174;52.364;6.452;2023-06-04T12:36:56;1.23;;;0.77;;
54261;SDS011;40174;52.364;6.452;2023-06-04T12:39:22;3.72;;;0.70;;
54261;SDS011;40174;52.364;6.452;2023-06-04T12:41:50;3.03;;;0.80;;
54261;SDS011;40174;52.364;6.452;2023-06-04T12:44:17;6.30;;;1.02;;
54261;SDS011;40174;52.364;6.452;2023-06-04T12:46:44;1.48;;;0.70;;
54261;SDS011;40174;52.364;6.452;2023-06-04T12:49:10;4.00;;;0.68;;
54261;SDS011;40174;52.364;6.452;2023-06-04T12:51:37;4.13;;;1.00;;
54261;SDS011;40174;52.364;6.452;2023-06-04T12:54:04;2.95;;;0.70;;
54261;SDS011;40174;52.364;6.452;2023-06-04T12:56:31;2.72;;;1.00;;
54261;SDS011;40174;52.364;6.452;2023-06-04T12:58:59;3.58;;;0.95;;
54261;SDS011;40174;52.364;6.452;2023-06-04T13:01:25;2.75;;;1.00;;
54261;SDS011;40174;52.364;6.452;2023-06-04T13:03:52;2.47;;;0.90;;
54261;SDS011;40174;52.364;6.452;2023-06-04T13:06:20;2.63;;;0.95;;
54261;SDS011;40174;52.364;6.452;2023-06-04T13:08:47;1.25;;;0.65;;
54261;SDS011;40174;52.364;6.452;2023-06-04T13:11:13;1.83;;;0.77;;
54261;SDS011;40174;52.364;6.452;2023-06-04T13:13:40;4.00;;;0.90;;
54261;SDS011;40174;52.364;6.452;2023-06-04T13:16:08;2.83;;;0.90;;
54261;SDS011;40174;52.364;6.452;2023-06-04T13:18:35;2.05;;;0.73;;
54261;SDS011;40174;52.364;6.452;2023-06-04T13:21:01;2.13;;;1.05;;
54261;SDS011;40174;52.364;6.452;2023-06-04T13:23:28;1.15;;;0.70;;
54261;SDS011;40174;52.364;6.452;2023-06-04T13:25:55;3.42;;;0.85;;
54261;SDS011;40174;52.364;6.452;2023-06-04T13:28:21;1.85;;;0.88;;
54261;SDS011;40174;52.364;6.452;2023-06-04T13:30:48;3.53;;;0.90;;
54261;SDS011;40174;52.364;6.452;2023-06-04T13:33:16;1.48;;;0.70;;
54261;SDS011;40174;52.364;6.452;2023-06-04T13:35:44;3.10;;;0.80;;
54261;SDS011;40174;52.364;6.452;2023-06-04T13:38:10;2.70;;;0.90;;
54261;SDS011;40174;52.364;6.452;2023-06-04T13:40:38;3.15;;;0.98;;
54261;SDS011;40174;52.364;6.452;2023-06-04T13:43:05;2.35;;;0.70;;
54261;SDS011;40174;52.364;6.452;2023-06-04T13:45:33;2.60;;;1.00;;
54261;SDS011;40174;52.364;6.452;2023-06-04T13:48:00;4.65;;;1.08;;
54261;SDS011;40174;52.364;6.452;2023-06-04T13:50:32;3.35;;;0.90;;
54261;SDS011;40174;52.364;6.452;2023-06-04T13:52:59;1.77;;;1.00;;
54261;SDS011;40174;52.364;6.452;2023-06-04T13:55:26;2.33;;;0.90;;
54261;SDS011;40174;52.364;6.452;2023-06-04T13:57:52;3.95;;;1.13;;
54261;SDS011;40174;52.364;6.452;2023-06-04T14:00:19;1.27;;;0.60;;
54261;SDS011;40174;52.364;6.452;2023-06-04T14:02:46;2.55;;;0.80;;
54261;SDS011;40174;52.364;6.452;2023-06-04T14:05:14;2.65;;;0.90;;
54261;SDS011;40174;52.364;6.452;2023-06-04T14:07:42;2.80;;;1.00;;
54261;SDS011;40174;52.364;6.452;2023-06-04T14:10:09;3.58;;;0.90;;
54261;SDS011;40174;52.364;6.452;2023-06-04T14:12:36;2.40;;;0.80;;
54261;SDS011;40174;52.364;6.452;2023-06-04T14:15:04;1.65;;;0.90;;
54261;SDS011;40174;52.364;6.452;2023-06-04T14:17:32;2.40;;;0.90;;
54261;SDS011;40174;52.364;6.452;2023-06-04T14:19:59;4.65;;;0.90;;
54261;SDS011;40174;52.364;6.452;2023-06-04T14:22:26;2.50;;;0.90;;
54261;SDS011;40174;52.364;6.452;2023-06-04T14:24:53;1.70;;;0.75;;
54261;SDS011;40174;52.364;6.452;2023-06-04T14:27:20;2.22;;;0.70;;
54261;SDS011;40174;52.364;6.452;2023-06-04T14:29:47;2.25;;;1.10;;
54261;SDS011;40174;52.364;6.452;2023-06-04T14:32:13;3.30;;;0.80;;
54261;SDS011;40174;52.364;6.452;2023-06-04T14:34:40;3.25;;;0.90;;
54261;SDS011;40174;52.364;6.452;2023-06-04T14:37:06;5.35;;;1.10;;
54261;SDS011;40174;52.364;6.452;2023-06-04T14:39:33;3.85;;;1.30;;
54261;SDS011;40174;52.364;6.452;2023-06-04T14:42:02;2.42;;;0.90;;
54261;SDS011;40174;52.364;6.452;2023-06-04T14:44:29;2.05;;;0.90;;
54261;SDS011;40174;52.364;6.452;2023-06-04T14:46:57;3.72;;;0.75;;
54261;SDS011;40174;52.364;6.452;2023-06-04T14:49:24;2.58;;;0.98;;
54261;SDS011;40174;52.364;6.452;2023-06-04T14:51:51;4.63;;;1.00;;
54261;SDS011;40174;52.364;6.452;2023-06-04T14:54:18;1.80;;;0.90;;
54261;SDS011;40174;52.364;6.452;2023-06-04T14:56:44;3.78;;;0.90;;
54261;SDS011;40174;52.364;6.452;2023-06-04T14:59:12;4.40;;;0.90;;